Searcy, Arkansas
Current Conditions -  °F | °C
As of 9:32 AM on Friday 19 Dec 2014 (Local Time) from KSRC Reporting Station
Overcast Overcast  
Wind Chill: 35°   Ceiling: 1100
Heat Index: 41°   Visibility: 8mi
Dew Point: 37°   Wind: 10mph
Humidity: 87%   Direction: 60°ENE
Pressure: 30.3"   Gusts: NA
Location:  35.25°N, 91.74°W
Report Text: KSRC 191532Z AUTO 06009KT 8SM OVC011 05/03 A3030 RMK AO2 TSNO
Loading
Personal Weather Stations






























Interactive Weather Map New forecast layout! Learn more

10-Day Weather Forecast

Advertisements
Track Severe Weather on mobile